createdAt,value
2017-09-18T00:01:29.789Z,69.20
2017-09-18T00:03:58.448Z,69.20
2017-09-18T00:06:26.773Z,69.30
2017-09-18T00:08:55.979Z,69.60
2017-09-18T00:11:25.087Z,69.00
2017-09-18T00:13:54.167Z,69.20
2017-09-18T00:16:23.107Z,69.20
2017-09-18T00:18:51.833Z,68.40
2017-09-18T00:21:21.335Z,68.70
2017-09-18T00:23:49.730Z,68.60
2017-09-18T00:26:18.935Z,68.10
2017-09-18T00:28:48.209Z,68.40
2017-09-18T00:31:16.630Z,68.30
2017-09-18T00:33:44.971Z,67.90
2017-09-18T00:36:13.715Z,67.50
2017-09-18T00:38:42.053Z,67.60
2017-09-18T00:41:11.086Z,67.60
2017-09-18T00:43:39.607Z,67.60
2017-09-18T00:46:08.076Z,67.10
2017-09-18T00:48:36.453Z,67.90
2017-09-18T00:51:04.937Z,67.80
2017-09-18T00:53:33.319Z,67.30
2017-09-18T00:56:01.709Z,66.70
2017-09-18T00:58:31.096Z,67.50
2017-09-18T01:00:59.588Z,67.20
2017-09-18T01:03:27.809Z,67.20
2017-09-18T01:05:56.440Z,68.00
2017-09-18T01:08:24.621Z,67.70
2017-09-18T01:10:52.890Z,67.40
2017-09-18T01:13:21.499Z,67.30
2017-09-18T01:15:50.352Z,67.90
2017-09-18T01:18:18.447Z,67.90
2017-09-18T01:20:47.636Z,67.90
2017-09-18T01:23:16.611Z,68.20
2017-09-18T01:25:44.811Z,68.80
2017-09-18T01:28:13.892Z,67.70
2017-09-18T01:30:42.871Z,68.00
2017-09-18T01:33:11.359Z,68.20
2017-09-18T01:35:40.071Z,67.50
2017-09-18T01:38:08.947Z,67.40
2017-09-18T01:40:37.322Z,67.20
2017-09-18T01:43:06.502Z,67.20
2017-09-18T01:45:34.562Z,67.20
2017-09-18T01:48:02.556Z,67.50
2017-09-18T01:50:30.949Z,67.80
2017-09-18T01:52:59.999Z,68.00
2017-09-18T01:55:28.197Z,68.00
2017-09-18T01:57:56.502Z,67.80
2017-09-18T02:00:25.368Z,67.90
2017-09-18T02:02:53.771Z,67.80
2017-09-18T02:05:22.227Z,68.00
2017-09-18T02:07:50.700Z,67.30
2017-09-18T02:10:19.098Z,67.50
2017-09-18T02:12:48.272Z,67.70
2017-09-18T02:15:16.855Z,67.70
2017-09-18T02:17:45.095Z,67.50
2017-09-18T02:20:13.414Z,66.90
2017-09-18T02:22:42.395Z,66.60
2017-09-18T02:25:10.575Z,66.50
2017-09-18T02:27:38.942Z,66.30
2017-09-18T02:30:07.132Z,66.60
2017-09-18T02:32:36.204Z,66.60
2017-09-18T02:35:04.605Z,66.40
2017-09-18T02:37:33.497Z,66.30
2017-09-18T02:40:02.575Z,66.30
2017-09-18T02:42:30.969Z,66.30
2017-09-18T02:44:59.319Z,66.10
2017-09-18T02:47:27.310Z,66.10
2017-09-18T02:49:55.589Z,65.80
2017-09-18T02:52:23.857Z,66.30
2017-09-18T02:54:52.020Z,65.80
2017-09-18T02:57:20.192Z,65.90
2017-09-18T02:59:48.472Z,65.70
2017-09-18T03:02:16.652Z,66.20
2017-09-18T03:04:45.033Z,65.70
2017-09-18T03:07:14.120Z,66.20
2017-09-18T03:09:42.270Z,66.20
2017-09-18T03:12:10.563Z,66.50
2017-09-18T03:14:38.841Z,66.30
2017-09-18T03:17:06.929Z,66.30
2017-09-18T03:19:35.064Z,66.10
2017-09-18T03:22:03.290Z,66.00
2017-09-18T03:24:32.556Z,65.90
2017-09-18T03:27:01.364Z,65.90
2017-09-18T03:29:30.573Z,66.40
2017-09-18T03:31:59.998Z,66.30
2017-09-18T03:34:28.448Z,66.20
2017-09-18T03:36:57.552Z,66.00
2017-09-18T03:39:27.251Z,65.70
2017-09-18T03:41:56.515Z,65.90
2017-09-18T03:44:24.848Z,65.90
2017-09-18T03:46:53.508Z,66.00
2017-09-18T03:49:22.795Z,67.40
2017-09-18T03:51:52.271Z,66.00
2017-09-18T03:54:20.711Z,66.00
2017-09-18T03:56:49.150Z,66.50
2017-09-18T03:59:18.251Z,66.80
2017-09-18T04:01:46.791Z,66.90
2017-09-18T04:04:15.151Z,66.20
2017-09-18T04:06:44.011Z,67.40
2017-09-18T04:09:13.010Z,67.40
2017-09-18T04:11:42.099Z,67.50
2017-09-18T04:14:10.259Z,67.50
2017-09-18T04:16:38.428Z,66.10
2017-09-18T04:19:06.608Z,66.40
2017-09-18T04:21:34.887Z,66.40
2017-09-18T04:24:04.912Z,66.50
2017-09-18T04:26:34.253Z,66.30
2017-09-18T04:29:02.697Z,66.30
2017-09-18T04:31:32.197Z,65.80
2017-09-18T04:34:01.497Z,65.70
2017-09-18T04:36:30.560Z,65.90
2017-09-18T04:38:58.924Z,65.90
2017-09-18T04:41:27.541Z,65.90
2017-09-18T04:43:55.937Z,66.80
2017-09-18T04:46:24.532Z,66.50
2017-09-18T04:48:53.092Z,66.20
2017-09-18T04:51:21.115Z,65.90
2017-09-18T04:53:49.640Z,66.30
2017-09-18T04:56:19.034Z,67.20
2017-09-18T04:58:48.361Z,66.50
2017-09-18T05:01:17.838Z,66.90
2017-09-18T05:03:46.357Z,66.90
2017-09-18T05:06:15.123Z,66.80
2017-09-18T05:08:44.456Z,67.10
2017-09-18T05:11:12.816Z,67.10
2017-09-18T05:13:41.056Z,67.40
2017-09-18T05:16:09.449Z,66.50
2017-09-18T05:18:38.929Z,67.10
2017-09-18T05:21:08.074Z,67.10
2017-09-18T05:23:36.854Z,67.10
2017-09-18T05:26:05.614Z,66.80
2017-09-18T05:28:34.113Z,65.90
2017-09-18T05:31:03.132Z,66.70
2017-09-18T05:33:31.657Z,66.60
2017-09-18T05:36:00.170Z,66.50
2017-09-18T05:38:29.369Z,66.60
2017-09-18T05:40:58.709Z,67.30
2017-09-18T05:43:27.351Z,67.30
2017-09-18T05:45:56.651Z,66.00
2017-09-18T05:48:25.711Z,66.10
2017-09-18T05:50:54.008Z,66.10
2017-09-18T05:53:22.413Z,65.90
2017-09-18T05:55:50.998Z,66.30
2017-09-18T05:58:19.334Z,66.00
2017-09-18T06:00:48.634Z,66.00
2017-09-18T06:03:18.806Z,66.00
2017-09-18T06:05:47.347Z,66.00
2017-09-18T06:08:15.613Z,65.80
2017-09-18T06:10:44.092Z,65.40
2017-09-18T06:13:12.473Z,65.30
2017-09-18T06:15:41.793Z,66.00
2017-09-18T06:18:10.157Z,65.60
2017-09-18T06:20:38.658Z,65.00
2017-09-18T06:23:07.037Z,64.50
2017-09-18T06:25:35.098Z,65.00
2017-09-18T06:28:04.691Z,64.40
2017-09-18T06:30:34.111Z,64.90
2017-09-18T06:33:03.822Z,64.60
2017-09-18T06:35:33.242Z,64.40
2017-09-18T06:38:02.082Z,64.40
2017-09-18T06:40:30.683Z,64.90
2017-09-18T06:42:59.862Z,64.80
2017-09-18T06:45:28.346Z,64.80
2017-09-18T06:47:56.632Z,64.10
2017-09-18T06:50:25.652Z,64.30
2017-09-18T06:52:54.447Z,64.30
2017-09-18T06:55:22.919Z,63.60
2017-09-18T06:57:51.258Z,64.00
2017-09-18T07:00:19.980Z,64.90
2017-09-18T07:02:48.230Z,65.00
2017-09-18T07:05:17.330Z,65.50
2017-09-18T07:07:46.518Z,65.60
2017-09-18T07:10:15.736Z,65.70
2017-09-18T07:12:44.051Z,65.70
2017-09-18T07:15:12.251Z,65.90
2017-09-18T07:17:40.734Z,65.80
2017-09-18T07:20:09.311Z,65.60
2017-09-18T07:22:37.592Z,65.90
2017-09-18T07:25:06.065Z,65.40
2017-09-18T07:27:34.777Z,65.80
2017-09-18T07:30:04.024Z,65.00
2017-09-18T07:32:32.449Z,64.90
2017-09-18T07:35:01.281Z,62.80
2017-09-18T07:37:30.174Z,62.80
2017-09-18T07:39:58.932Z,61.60
2017-09-18T07:42:27.553Z,61.70
2017-09-18T07:44:55.851Z,62.50
2017-09-18T07:47:24.558Z,62.90
2017-09-18T07:49:53.539Z,63.50
2017-09-18T07:52:22.015Z,62.80
2017-09-18T07:54:50.555Z,62.20
2017-09-18T07:57:19.096Z,62.80
2017-09-18T07:59:48.571Z,63.20
2017-09-18T08:02:17.051Z,63.20
2017-09-18T08:04:45.337Z,63.20
2017-09-18T08:07:14.548Z,61.30
2017-09-18T08:09:43.768Z,61.60
2017-09-18T08:12:11.918Z,60.90
2017-09-18T08:14:40.726Z,61.20
2017-09-18T08:17:09.298Z,61.10
2017-09-18T08:19:38.703Z,59.60
2017-09-18T08:22:08.098Z,59.70
2017-09-18T08:24:37.418Z,59.50
2017-09-18T08:27:06.279Z,59.40
2017-09-18T08:29:35.079Z,59.50
2017-09-18T08:32:04.479Z,60.20
2017-09-18T08:34:33.688Z,59.80
2017-09-18T08:37:03.037Z,59.90
2017-09-18T08:39:31.513Z,59.90
2017-09-18T08:41:59.846Z,59.40
2017-09-18T08:44:29.123Z,58.50
2017-09-18T08:46:58.642Z,58.40
2017-09-18T08:49:28.162Z,58.30
2017-09-18T08:51:56.821Z,58.30
2017-09-18T08:54:26.120Z,57.00
2017-09-18T08:56:55.655Z,57.60
2017-09-18T08:59:23.878Z,57.50
2017-09-18T09:01:52.380Z,57.40
2017-09-18T09:04:21.883Z,56.10
2017-09-18T09:06:51.181Z,55.50
2017-09-18T09:09:20.383Z,55.10
2017-09-18T09:11:49.781Z,54.90
2017-09-18T09:14:19.063Z,55.70
2017-09-18T09:16:47.683Z,55.60
2017-09-18T09:19:16.141Z,54.90
2017-09-18T09:21:45.342Z,54.40
2017-09-18T09:24:14.641Z,54.60
2017-09-18T09:26:43.822Z,54.20
2017-09-18T09:29:12.118Z,54.20
2017-09-18T09:31:41.160Z,53.50
2017-09-18T09:34:09.823Z,53.50
2017-09-18T09:36:38.602Z,53.10
2017-09-18T09:39:06.844Z,53.30
2017-09-18T09:41:35.150Z,53.70
2017-09-18T09:44:04.653Z,53.70
2017-09-18T09:46:33.335Z,53.70
2017-09-18T09:49:02.638Z,53.20
2017-09-18T09:51:31.915Z,53.20
2017-09-18T09:54:00.211Z,53.20
2017-09-18T09:56:29.478Z,53.70
2017-09-18T09:58:57.856Z,53.70
2017-09-18T10:01:26.476Z,53.60
2017-09-18T10:03:54.936Z,53.60
2017-09-18T10:06:24.260Z,52.40
2017-09-18T10:08:52.721Z,52.40
2017-09-18T10:11:22.009Z,54.00
2017-09-18T10:13:50.509Z,54.10
2017-09-18T10:16:19.697Z,52.40
2017-09-18T10:18:48.751Z,53.40
2017-09-18T10:21:17.392Z,52.70
2017-09-18T10:23:45.771Z,52.20
2017-09-18T10:26:14.352Z,52.40
2017-09-18T10:28:42.692Z,51.70
2017-09-18T10:31:11.296Z,51.00
2017-09-18T10:33:40.501Z,50.80
2017-09-18T10:36:09.796Z,50.90
2017-09-18T10:38:38.171Z,50.90
2017-09-18T10:41:07.257Z,51.10
2017-09-18T10:43:35.537Z,51.00
2017-09-18T10:46:04.528Z,51.60
2017-09-18T10:48:33.823Z,50.90
2017-09-18T10:51:03.125Z,50.50
2017-09-18T10:53:32.221Z,50.70
2017-09-18T10:56:01.209Z,50.20
2017-09-18T10:58:29.496Z,50.20
2017-09-18T11:00:58.964Z,50.60
2017-09-18T11:03:27.200Z,50.50
2017-09-18T11:05:55.746Z,50.60
2017-09-18T11:08:25.138Z,50.10
2017-09-18T11:10:53.512Z,50.10
2017-09-18T11:13:22.094Z,50.60
2017-09-18T11:15:50.594Z,49.10
2017-09-18T11:18:19.744Z,49.90
2017-09-18T11:20:48.059Z,49.90
2017-09-18T11:23:16.439Z,50.00
2017-09-18T11:25:45.763Z,49.20
2017-09-18T11:28:14.014Z,49.00
2017-09-18T11:30:43.033Z,49.10
2017-09-18T11:33:11.216Z,49.10
2017-09-18T11:35:39.755Z,48.90
2017-09-18T11:38:08.235Z,49.20
2017-09-18T11:40:36.666Z,48.70
2017-09-18T11:43:04.885Z,48.90
2017-09-18T11:45:33.372Z,48.70
2017-09-18T11:48:01.654Z,48.20
2017-09-18T11:50:30.214Z,48.20
2017-09-18T11:52:58.270Z,47.40
2017-09-18T11:55:26.772Z,47.00
2017-09-18T11:57:55.391Z,47.40
2017-09-18T12:00:23.610Z,48.30
2017-09-18T12:02:52.111Z,46.60
2017-09-18T12:05:20.602Z,45.60
2017-09-18T12:07:49.082Z,45.40
2017-09-18T12:10:17.695Z,45.70
2017-09-18T12:12:46.149Z,45.90
2017-09-18T12:15:15.448Z,44.50
2017-09-18T12:17:44.571Z,45.60
2017-09-18T12:20:13.011Z,45.50
2017-09-18T12:22:41.412Z,46.40
2017-09-18T12:25:10.382Z,46.20
2017-09-18T12:27:39.325Z,46.20
2017-09-18T12:30:07.708Z,45.20
2017-09-18T12:32:36.132Z,44.80
2017-09-18T12:35:04.719Z,44.10
2017-09-18T12:37:33.220Z,44.30
2017-09-18T12:40:01.717Z,43.50
2017-09-18T12:42:30.986Z,42.40
2017-09-18T12:44:59.453Z,42.30
2017-09-18T12:47:27.928Z,42.20
2017-09-18T12:49:56.405Z,41.40
2017-09-18T12:52:24.918Z,42.20
2017-09-18T12:54:54.014Z,42.10
2017-09-18T12:57:23.180Z,40.60
2017-09-18T12:59:51.351Z,40.60
2017-09-18T13:02:20.981Z,40.80
2017-09-18T13:04:50.043Z,40.90
2017-09-18T13:07:18.345Z,40.90
2017-09-18T13:09:47.453Z,40.90
2017-09-18T13:12:16.323Z,41.30
2017-09-18T13:14:45.523Z,41.50
2017-09-18T13:17:13.929Z,41.50
2017-09-18T13:19:42.488Z,42.20
2017-09-18T13:22:11.908Z,42.00
2017-09-18T13:24:40.398Z,42.00
2017-09-18T13:27:09.028Z,42.50
2017-09-18T13:29:37.209Z,42.30
2017-09-18T13:32:05.614Z,43.00
2017-09-18T13:34:34.926Z,42.80
2017-09-18T13:37:03.800Z,42.70
2017-09-18T13:39:32.668Z,43.00
2017-09-18T13:42:01.363Z,43.00
2017-09-18T13:44:29.961Z,43.20
2017-09-18T13:46:59.242Z,43.80
2017-09-18T13:49:28.404Z,44.00
2017-09-18T13:51:56.918Z,44.00
2017-09-18T13:54:25.437Z,43.90
2017-09-18T13:56:53.898Z,44.30
2017-09-18T13:59:23.264Z,44.00
2017-09-18T14:01:51.776Z,43.90
2017-09-18T14:04:20.975Z,44.10
2017-09-18T14:06:50.272Z,44.10
2017-09-18T14:09:18.718Z,44.00
2017-09-18T14:11:47.211Z,44.10
2017-09-18T14:14:16.495Z,44.60
2017-09-18T14:16:44.913Z,44.20
2017-09-18T14:19:13.940Z,43.90
2017-09-18T14:21:42.553Z,43.80
2017-09-18T14:24:11.048Z,43.90
2017-09-18T14:26:39.380Z,44.50
2017-09-18T14:29:07.788Z,44.20
2017-09-18T14:31:36.284Z,43.60
2017-09-18T14:34:04.423Z,44.70
2017-09-18T14:36:33.151Z,44.30
2017-09-18T14:39:01.379Z,43.50
2017-09-18T14:41:30.114Z,44.00
2017-09-18T14:43:58.498Z,43.80
2017-09-18T14:46:27.595Z,43.30
2017-09-18T14:48:56.794Z,43.60
2017-09-18T14:51:26.202Z,43.50
2017-09-18T14:53:55.405Z,43.50
2017-09-18T14:56:23.996Z,43.50
2017-09-18T14:58:52.423Z,43.00
2017-09-18T15:01:21.039Z,43.60
2017-09-18T15:03:50.351Z,44.00
2017-09-18T15:06:19.873Z,43.40
2017-09-18T15:08:48.137Z,43.40
2017-09-18T15:11:16.367Z,44.10
2017-09-18T15:13:44.669Z,44.20
2017-09-18T15:16:13.869Z,43.80
2017-09-18T15:18:42.939Z,44.10
2017-09-18T15:21:12.153Z,43.50
2017-09-18T15:23:40.639Z,43.60
2017-09-18T15:26:09.707Z,43.50
2017-09-18T15:28:38.115Z,43.50
2017-09-18T15:31:07.522Z,43.10
2017-09-18T15:33:36.834Z,43.70
2017-09-18T15:36:05.178Z,43.70
2017-09-18T15:38:34.527Z,43.10
2017-09-18T15:41:03.397Z,43.10
2017-09-18T15:43:32.807Z,43.20
2017-09-18T15:46:01.367Z,43.20
2017-09-18T15:48:30.515Z,43.50
2017-09-18T15:50:58.930Z,43.40
2017-09-18T15:53:27.725Z,43.10
2017-09-18T15:55:57.106Z,43.30
2017-09-18T15:58:25.392Z,43.30
2017-09-18T16:00:53.719Z,43.40
2017-09-18T16:03:22.491Z,43.40
2017-09-18T16:05:51.721Z,42.80
2017-09-18T16:08:20.406Z,43.20
2017-09-18T16:10:48.608Z,42.30
2017-09-18T16:13:16.993Z,43.00
2017-09-18T16:15:45.375Z,43.20
2017-09-18T16:18:13.749Z,43.20
2017-09-18T16:20:42.252Z,43.70
2017-09-18T16:23:10.952Z,44.00
2017-09-18T16:25:39.313Z,42.50
2017-09-18T16:28:07.873Z,42.50
2017-09-18T16:30:36.552Z,42.40
2017-09-18T16:33:04.932Z,42.30
2017-09-18T16:35:34.054Z,42.50
2017-09-18T16:38:03.437Z,42.90
2017-09-18T16:40:31.709Z,42.80
2017-09-18T16:43:00.867Z,44.20
2017-09-18T16:45:29.192Z,43.60
2017-09-18T16:47:58.480Z,44.00
2017-09-18T16:50:27.097Z,44.00
2017-09-18T16:52:55.877Z,44.00
2017-09-18T16:55:24.373Z,43.70
2017-09-18T16:57:52.812Z,43.70
2017-09-18T17:00:21.295Z,43.90
2017-09-18T17:02:49.573Z,44.90
2017-09-18T17:05:18.977Z,47.40
2017-09-18T17:07:48.158Z,48.50
2017-09-18T17:10:16.656Z,48.50
2017-09-18T17:12:45.896Z,49.50
2017-09-18T17:15:14.561Z,49.50
2017-09-18T17:17:43.063Z,50.50
2017-09-18T17:20:11.807Z,49.80
2017-09-18T17:22:40.972Z,50.50
2017-09-18T17:25:09.251Z,50.50
2017-09-18T17:27:38.093Z,51.00
2017-09-18T17:30:06.751Z,51.20
2017-09-18T17:32:35.952Z,51.10
2017-09-18T17:35:05.056Z,51.20
2017-09-18T17:37:34.218Z,51.30
2017-09-18T17:40:02.610Z,51.30
2017-09-18T17:42:31.972Z,51.70
2017-09-18T17:45:00.293Z,51.70
2017-09-18T17:47:29.513Z,51.50
2017-09-18T17:49:58.453Z,51.50
2017-09-18T17:52:26.993Z,51.80
2017-09-18T17:54:55.853Z,52.20
2017-09-18T17:57:25.041Z,51.70
2017-09-18T17:59:53.754Z,51.70
2017-09-18T18:02:21.871Z,52.30
2017-09-18T18:04:50.476Z,52.30
2017-09-18T18:07:18.954Z,52.40
2017-09-18T18:09:47.469Z,52.50
2017-09-18T18:12:16.590Z,52.60
2017-09-18T18:14:45.633Z,52.70
2017-09-18T18:17:13.929Z,52.70
2017-09-18T18:19:42.391Z,52.70
2017-09-18T18:22:10.634Z,52.90
2017-09-18T18:24:39.045Z,53.70
2017-09-18T18:27:07.628Z,53.20
2017-09-18T18:29:35.751Z,53.20
2017-09-18T18:32:04.112Z,53.30
2017-09-18T18:34:32.812Z,53.60
2017-09-18T18:37:01.309Z,53.80
2017-09-18T18:39:29.827Z,53.80
2017-09-18T18:41:58.339Z,53.80
2017-09-18T18:44:26.674Z,54.00
2017-09-18T18:46:55.714Z,54.20
2017-09-18T18:49:24.414Z,54.10
2017-09-18T18:51:53.114Z,54.10
2017-09-18T18:54:21.860Z,54.20
2017-09-18T18:56:51.359Z,53.90
2017-09-18T18:59:19.556Z,53.90
2017-09-18T19:01:47.916Z,53.90
2017-09-18T19:04:16.715Z,54.00
2017-09-18T19:06:45.351Z,54.20
2017-09-18T19:09:13.712Z,54.40
2017-09-18T19:11:42.193Z,54.30
2017-09-18T19:14:10.556Z,54.40
2017-09-18T19:16:38.845Z,54.60
2017-09-18T19:19:07.227Z,54.70
2017-09-18T19:21:35.531Z,54.70
2017-09-18T19:24:04.712Z,54.80
2017-09-18T19:26:33.371Z,54.80
2017-09-18T19:29:02.188Z,54.70
2017-09-18T19:31:30.788Z,54.90
2017-09-18T19:34:00.228Z,54.90
2017-09-18T19:36:28.343Z,54.90
2017-09-18T19:38:57.210Z,55.60
2017-09-18T19:41:25.764Z,55.50
2017-09-18T19:43:55.105Z,56.00
2017-09-18T19:46:23.765Z,56.00
2017-09-18T19:48:52.110Z,56.00
2017-09-18T19:51:20.656Z,55.60
2017-09-18T19:53:48.942Z,56.00
2017-09-18T19:56:17.436Z,56.20
2017-09-18T19:58:46.734Z,56.10
2017-09-18T20:01:16.119Z,56.20
2017-09-18T20:03:45.202Z,56.20
2017-09-18T20:06:13.773Z,56.20
2017-09-18T20:08:42.328Z,56.30
2017-09-18T20:11:11.052Z,56.30
2017-09-18T20:13:39.674Z,56.30
2017-09-18T20:16:08.102Z,56.80
2017-09-18T20:18:36.621Z,57.20
2017-09-18T20:21:05.082Z,57.50
2017-09-18T20:23:33.782Z,57.40
2017-09-18T20:26:03.102Z,57.70
2017-09-18T20:28:31.383Z,57.80
2017-09-18T20:30:59.824Z,58.20
2017-09-18T20:33:28.404Z,58.10
2017-09-18T20:35:57.822Z,57.80
2017-09-18T20:38:26.774Z,57.70
2017-09-18T20:40:55.210Z,57.70
2017-09-18T20:43:23.460Z,57.70
2017-09-18T20:45:51.830Z,57.50
2017-09-18T20:48:19.974Z,57.50
2017-09-18T20:50:48.258Z,57.40
2017-09-18T20:53:16.837Z,57.40
2017-09-18T20:55:45.130Z,57.20
2017-09-18T20:58:13.693Z,57.20
2017-09-18T21:00:42.107Z,57.50
2017-09-18T21:03:10.719Z,57.90
2017-09-18T21:05:39.306Z,58.10
2017-09-18T21:08:07.675Z,58.20
2017-09-18T21:10:36.381Z,58.50
2017-09-18T21:13:05.002Z,58.60
2017-09-18T21:15:33.884Z,58.90
2017-09-18T21:18:02.147Z,58.80
2017-09-18T21:20:30.665Z,58.70
2017-09-18T21:22:59.472Z,59.30
2017-09-18T21:25:28.569Z,59.30
2017-09-18T21:27:57.859Z,59.60
2017-09-18T21:30:27.193Z,59.40
2017-09-18T21:32:55.928Z,59.40
2017-09-18T21:35:24.433Z,59.40
2017-09-18T21:37:52.790Z,59.40
2017-09-18T21:40:21.370Z,59.30
2017-09-18T21:42:49.709Z,59.40
2017-09-18T21:45:18.132Z,59.90
2017-09-18T21:47:47.371Z,59.70
2017-09-18T21:50:15.999Z,59.60
2017-09-18T21:52:44.592Z,59.50
2017-09-18T21:55:13.991Z,59.10
2017-09-18T21:57:42.352Z,59.10
2017-09-18T22:00:10.745Z,59.00
2017-09-18T22:02:39.365Z,58.90
2017-09-18T22:05:07.817Z,58.90
2017-09-18T22:07:36.219Z,58.90
2017-09-18T22:10:05.557Z,59.00
2017-09-18T22:12:33.873Z,59.00
2017-09-18T22:15:02.378Z,58.80
2017-09-18T22:17:31.989Z,58.70
2017-09-18T22:20:00.449Z,58.70
2017-09-18T22:22:29.149Z,58.90
2017-09-18T22:24:57.809Z,58.90
2017-09-18T22:27:25.868Z,58.80
2017-09-18T22:29:54.640Z,58.10
2017-09-18T22:32:23.186Z,59.70
2017-09-18T22:34:51.749Z,59.20
2017-09-18T22:37:20.434Z,58.90
2017-09-18T22:39:49.816Z,59.30
2017-09-18T22:42:18.423Z,59.30
2017-09-18T22:44:47.110Z,59.40
2017-09-18T22:47:15.296Z,59.40
2017-09-18T22:49:43.866Z,59.50
2017-09-18T22:52:12.315Z,58.90
2017-09-18T22:54:40.698Z,58.70
2017-09-18T22:57:09.080Z,60.00
2017-09-18T22:59:38.463Z,59.30
2017-09-18T23:02:07.102Z,59.30
2017-09-18T23:04:35.461Z,59.20
2017-09-18T23:07:04.647Z,59.10
2017-09-18T23:09:33.943Z,59.20
2017-09-18T23:12:03.032Z,59.40
2017-09-18T23:14:32.206Z,59.40
2017-09-18T23:17:00.712Z,59.30
2017-09-18T23:19:29.299Z,59.20
2017-09-18T23:21:58.581Z,59.50
2017-09-18T23:24:26.947Z,59.50
2017-09-18T23:26:55.553Z,59.50
2017-09-18T23:29:24.059Z,59.60
2017-09-18T23:31:52.615Z,59.50
2017-09-18T23:34:21.017Z,59.70
2017-09-18T23:36:49.479Z,59.90
2017-09-18T23:39:18.668Z,59.80
2017-09-18T23:41:47.149Z,59.80
2017-09-18T23:44:15.528Z,59.40
2017-09-18T23:46:44.112Z,60.30
2017-09-18T23:49:13.232Z,59.70
2017-09-18T23:51:41.654Z,59.80
2017-09-18T23:54:10.271Z,59.90
2017-09-18T23:56:39.567Z,59.80
2017-09-18T23:59:08.173Z,59.80
